createdAt,value
2023-04-18T00:00:50.713Z,19.15
2023-04-18T00:01:52.862Z,19.16
2023-04-18T00:02:55.760Z,19.15
2023-04-18T00:03:58.109Z,19.16
2023-04-18T00:05:00.219Z,19.17
2023-04-18T00:06:02.360Z,19.07
2023-04-18T00:07:04.174Z,19.14
2023-04-18T00:08:05.921Z,19.14
2023-04-18T00:09:07.824Z,19.14
2023-04-18T00:10:09.994Z,19.13
2023-04-18T00:11:11.767Z,19.13
2023-04-18T00:12:13.753Z,19.05
2023-04-18T00:13:18.427Z,19.11
2023-04-18T00:14:20.809Z,19.14
2023-04-18T00:15:22.656Z,19.13
2023-04-18T00:16:24.522Z,19.12
2023-04-18T00:17:27.736Z,19.10
2023-04-18T00:18:29.620Z,19.12
2023-04-18T00:19:31.417Z,19.09
2023-04-18T00:20:33.229Z,19.09
2023-04-18T00:21:36.131Z,19.09
2023-04-18T00:22:42.647Z,19.08
2023-04-18T00:23:46.128Z,19.10
2023-04-18T00:24:49.828Z,19.06
2023-04-18T00:25:51.666Z,19.10
2023-04-18T00:26:53.470Z,19.04
2023-04-18T00:27:55.329Z,19.08
2023-04-18T00:28:58.964Z,19.08
2023-04-18T00:30:00.769Z,19.07
2023-04-18T00:31:03.087Z,19.07
2023-04-18T00:32:06.993Z,19.02
2023-04-18T00:33:09.002Z,19.06
2023-04-18T00:34:10.974Z,19.06
2023-04-18T00:35:12.856Z,19.06
2023-04-18T00:36:14.786Z,19.05
2023-04-18T00:37:16.704Z,18.86
2023-04-18T00:38:18.566Z,19.04
2023-04-18T00:39:22.943Z,18.85
2023-04-18T00:40:25.622Z,19.05
2023-04-18T00:41:28.424Z,18.98
2023-04-18T00:42:30.460Z,19.03
2023-04-18T00:43:35.091Z,19.03
2023-04-18T00:44:37.022Z,19.05
2023-04-18T00:45:38.891Z,19.02
2023-04-18T00:46:40.890Z,19.02
2023-04-18T00:47:43.163Z,19.01
2023-04-18T00:48:45.184Z,19.02
2023-04-18T00:49:48.658Z,18.95
2023-04-18T00:50:50.778Z,19.01
2023-04-18T00:51:54.744Z,18.92
2023-04-18T00:52:57.026Z,19.01
2023-04-18T00:53:58.852Z,19.00
2023-04-18T00:55:01.317Z,18.91
2023-04-18T00:56:03.632Z,19.00
2023-04-18T00:57:05.923Z,18.89
2023-04-18T00:58:08.249Z,18.95
2023-04-18T00:59:11.233Z,18.99
2023-04-18T01:00:15.170Z,18.94
2023-04-18T01:01:18.201Z,18.99
2023-04-18T01:02:20.318Z,18.92
2023-04-18T01:03:23.058Z,18.98
2023-04-18T01:04:25.070Z,18.97
2023-04-18T01:05:27.227Z,18.97
2023-04-18T01:06:29.570Z,18.96
2023-04-18T01:07:33.505Z,18.93
2023-04-18T01:08:36.437Z,18.96
2023-04-18T01:09:38.541Z,18.97
2023-04-18T01:10:40.670Z,18.88
2023-04-18T01:11:43.126Z,18.95
2023-04-18T01:12:45.044Z,18.95
2023-04-18T01:14:06.947Z,18.98
2023-04-18T01:15:11.592Z,18.99
2023-04-18T01:16:13.426Z,18.98
2023-04-18T01:17:16.304Z,18.88
2023-04-18T01:18:19.282Z,18.95
2023-04-18T01:19:21.536Z,18.93
2023-04-18T01:20:23.461Z,18.94
2023-04-18T01:21:26.913Z,18.94
2023-04-18T01:22:30.932Z,18.92
2023-04-18T01:23:32.855Z,18.93
2023-04-18T01:24:35.150Z,18.91
2023-04-18T01:25:37.401Z,18.88
2023-04-18T01:26:39.575Z,18.89
2023-04-18T01:27:41.477Z,18.90
2023-04-18T01:28:43.412Z,18.89
2023-04-18T01:29:45.653Z,18.89
2023-04-18T01:30:47.440Z,18.88
2023-04-18T01:31:49.247Z,18.88
2023-04-18T01:32:51.206Z,18.88
2023-04-18T01:33:53.046Z,18.88
2023-04-18T01:34:55.000Z,18.86
2023-04-18T01:35:56.966Z,18.87
2023-04-18T01:36:59.304Z,18.77
2023-04-18T01:38:01.357Z,18.80
2023-04-18T01:39:03.693Z,18.84
2023-04-18T01:40:06.138Z,18.87
2023-04-18T01:41:07.942Z,18.86
2023-04-18T01:42:09.905Z,18.85
2023-04-18T01:43:12.543Z,18.86
2023-04-18T01:44:14.810Z,18.86
2023-04-18T01:45:17.348Z,18.84
2023-04-18T01:46:20.442Z,18.78
2023-04-18T01:47:22.232Z,18.85
2023-04-18T01:48:24.082Z,18.83
2023-04-18T01:49:25.933Z,18.83
2023-04-18T01:50:27.727Z,18.83
2023-04-18T01:51:29.572Z,18.83
2023-04-18T01:52:31.554Z,18.82
2023-04-18T01:53:33.508Z,18.83
2023-04-18T01:54:35.573Z,18.81
2023-04-18T01:55:37.418Z,18.81
2023-04-18T01:56:39.321Z,18.80
2023-04-18T01:57:41.292Z,18.77
2023-04-18T01:58:44.245Z,18.79
2023-04-18T01:59:47.700Z,18.81
2023-04-18T02:00:52.598Z,18.79
2023-04-18T02:01:55.086Z,18.77
2023-04-18T02:02:59.793Z,18.76
2023-04-18T02:04:01.798Z,18.73
2023-04-18T02:05:03.766Z,18.80
2023-04-18T02:06:06.232Z,18.78
2023-04-18T02:07:08.168Z,18.70
2023-04-18T02:08:11.760Z,18.78
2023-04-18T02:09:13.630Z,18.72
2023-04-18T02:10:18.215Z,18.77
2023-04-18T02:11:20.126Z,18.76
2023-04-18T02:12:22.140Z,18.76
2023-04-18T02:13:25.140Z,18.75
2023-04-18T02:14:28.229Z,18.76
2023-04-18T02:15:30.334Z,18.75
2023-04-18T02:16:32.238Z,18.73
2023-04-18T02:17:35.664Z,18.73
2023-04-18T02:18:40.207Z,18.74
2023-04-18T02:19:42.044Z,18.74
2023-04-18T02:20:44.158Z,18.71
2023-04-18T02:21:46.032Z,18.72
2023-04-18T02:22:49.565Z,18.69
2023-04-18T02:23:51.684Z,18.73
2023-04-18T02:24:56.674Z,18.73
2023-04-18T02:25:58.437Z,18.73
2023-04-18T02:27:00.929Z,18.73
2023-04-18T02:28:02.792Z,18.67
2023-04-18T02:29:06.305Z,18.72
2023-04-18T02:30:08.670Z,18.69
2023-04-18T02:31:15.198Z,18.70
2023-04-18T02:32:17.099Z,18.70
2023-04-18T02:33:19.636Z,18.72
2023-04-18T02:34:21.459Z,18.71
2023-04-18T02:35:24.183Z,18.69
2023-04-18T02:36:28.166Z,18.69
2023-04-18T02:37:30.071Z,18.67
2023-04-18T02:38:31.974Z,18.68
2023-04-18T02:39:33.775Z,18.68
2023-04-18T02:40:35.623Z,18.68
2023-04-18T02:41:39.327Z,18.67
2023-04-18T02:42:41.279Z,18.68
2023-04-18T02:43:43.316Z,18.65
2023-04-18T02:44:45.404Z,18.67
2023-04-18T02:45:47.312Z,18.66
2023-04-18T02:46:49.681Z,18.60
2023-04-18T02:47:55.982Z,18.65
2023-04-18T02:48:58.531Z,18.67
2023-04-18T02:50:00.471Z,18.66
2023-04-18T02:51:04.714Z,18.66
2023-04-18T02:52:09.078Z,18.67
2023-04-18T02:53:11.086Z,18.66
2023-04-18T02:54:28.565Z,18.69
2023-04-18T02:55:37.326Z,18.68
2023-04-18T02:56:40.229Z,18.58
2023-04-18T02:57:51.169Z,18.68
2023-04-18T02:59:11.573Z,18.70
2023-04-18T03:00:33.356Z,18.72
2023-04-18T03:01:40.961Z,18.69
2023-04-18T03:02:48.180Z,18.67
2023-04-18T03:04:01.378Z,18.68
2023-04-18T03:05:15.367Z,18.67
2023-04-18T03:06:17.445Z,18.65
2023-04-18T03:07:19.245Z,18.62
2023-04-18T03:08:22.339Z,18.62
2023-04-18T03:09:25.303Z,18.60
2023-04-18T03:10:31.686Z,18.62
2023-04-18T03:11:33.606Z,18.61
2023-04-18T03:12:35.691Z,18.59
2023-04-18T03:13:38.788Z,18.61
2023-04-18T03:14:40.798Z,18.49
2023-04-18T03:15:42.888Z,18.57
2023-04-18T03:16:45.616Z,18.57
2023-04-18T03:17:51.575Z,18.59
2023-04-18T03:18:56.356Z,18.59
2023-04-18T03:19:58.498Z,18.59
2023-04-18T03:21:00.811Z,18.57
2023-04-18T03:22:04.280Z,18.57
2023-04-18T03:23:06.655Z,18.57
2023-04-18T03:24:12.248Z,18.52
2023-04-18T03:25:16.184Z,18.56
2023-04-18T03:26:24.642Z,18.56
2023-04-18T03:27:27.403Z,18.56
2023-04-18T03:28:29.392Z,18.57
2023-04-18T03:29:31.405Z,18.55
2023-04-18T03:30:33.640Z,18.55
2023-04-18T03:31:36.477Z,18.54
2023-04-18T03:32:38.650Z,18.56
2023-04-18T03:33:42.428Z,18.55
2023-04-18T03:34:45.568Z,18.55
2023-04-18T03:35:47.405Z,18.54
2023-04-18T03:36:49.539Z,18.53
2023-04-18T03:37:52.097Z,18.54
2023-04-18T03:38:59.217Z,18.55
2023-04-18T03:40:01.830Z,18.55
2023-04-18T03:41:05.422Z,18.48
2023-04-18T03:42:11.758Z,18.37
2023-04-18T03:43:17.019Z,18.55
2023-04-18T03:44:18.940Z,18.54
2023-04-18T03:45:20.944Z,18.53
2023-04-18T03:46:24.604Z,18.53
2023-04-18T03:47:31.547Z,18.45
2023-04-18T03:48:37.302Z,18.57
2023-04-18T03:52:49.049Z,18.99
2023-04-18T03:53:52.571Z,18.98
2023-04-18T03:54:54.452Z,18.95
2023-04-18T03:56:00.191Z,19.10
2023-04-18T03:57:16.330Z,19.21
2023-04-18T03:58:23.609Z,19.25
2023-04-18T03:59:26.711Z,19.29
2023-04-18T04:02:04.006Z,19.53
2023-04-18T04:03:07.019Z,19.55
2023-04-18T04:04:14.125Z,19.68
2023-04-18T04:05:34.800Z,19.81
2023-04-18T04:06:36.730Z,19.85
2023-04-18T04:07:38.869Z,19.81
2023-04-18T04:08:42.297Z,19.94
2023-04-18T04:09:44.423Z,19.98
2023-04-18T04:10:46.783Z,20.07
2023-04-18T04:11:48.643Z,20.11
2023-04-18T04:12:51.506Z,20.17
2023-04-18T04:13:53.732Z,20.21
2023-04-18T04:15:01.040Z,20.28
2023-04-18T04:16:03.180Z,20.36
2023-04-18T04:17:05.613Z,20.40
2023-04-18T04:18:09.008Z,20.43
2023-04-18T04:19:14.993Z,20.47
2023-04-18T04:20:29.827Z,20.57
2023-04-18T04:21:39.204Z,20.66
2023-04-18T04:22:44.258Z,20.66
2023-04-18T04:23:46.412Z,20.72
2023-04-18T04:25:00.811Z,20.78
2023-04-18T04:26:09.199Z,20.80
2023-04-18T04:27:19.161Z,20.87
2023-04-18T04:28:26.347Z,20.85
2023-04-18T04:29:33.677Z,20.94
2023-04-18T04:30:35.820Z,20.94
2023-04-18T04:31:37.797Z,20.95
2023-04-18T04:32:39.659Z,20.94
2023-04-18T04:33:42.691Z,21.01
2023-04-18T04:34:50.915Z,21.04
2023-04-18T04:35:54.297Z,21.08
2023-04-18T04:36:56.357Z,21.07
2023-04-18T04:38:01.668Z,21.11
2023-04-18T04:39:11.822Z,21.14
2023-04-18T04:40:34.948Z,21.23
2023-04-18T04:41:44.146Z,21.20
2023-04-18T04:42:49.154Z,21.22
2023-04-18T04:43:56.998Z,21.25
2023-04-18T04:45:03.743Z,21.23
2023-04-18T04:46:07.561Z,21.22
2023-04-18T04:47:09.691Z,21.26
2023-04-18T04:48:14.077Z,21.28
2023-04-18T04:49:16.824Z,21.27
2023-04-18T04:50:19.027Z,21.29
2023-04-18T04:51:20.936Z,21.30
2023-04-18T04:52:22.775Z,21.28
2023-04-18T04:53:26.380Z,21.31
2023-04-18T04:54:28.352Z,21.30
2023-04-18T04:55:30.376Z,21.34
2023-04-18T04:56:32.791Z,21.32
2023-04-18T04:57:35.831Z,21.12
2023-04-18T04:58:45.304Z,21.36
2023-04-18T04:59:51.194Z,21.40
2023-04-18T05:00:53.677Z,21.38
2023-04-18T05:01:55.980Z,21.15
2023-04-18T05:02:57.993Z,21.38
2023-04-18T05:04:01.725Z,21.40
2023-04-18T05:05:03.902Z,21.34
2023-04-18T05:06:06.071Z,21.33
2023-04-18T05:07:07.875Z,21.40
2023-04-18T05:08:09.789Z,21.37
2023-04-18T05:09:11.638Z,21.41
2023-04-18T05:10:13.512Z,21.38
2023-04-18T05:11:16.075Z,21.44
2023-04-18T05:12:17.905Z,21.46
2023-04-18T05:13:19.734Z,21.46
2023-04-18T05:14:21.603Z,21.53
2023-04-18T05:15:24.237Z,21.55
2023-04-18T05:16:26.646Z,21.57
2023-04-18T05:17:28.526Z,21.58
2023-04-18T05:18:30.573Z,21.65
2023-04-18T05:19:33.106Z,21.69
2023-04-18T05:20:34.884Z,21.74
2023-04-18T05:21:36.762Z,21.74
2023-04-18T05:22:38.653Z,21.81
2023-04-18T05:23:40.547Z,21.82
2023-04-18T05:24:42.366Z,21.89
2023-04-18T05:25:44.203Z,21.92
2023-04-18T05:26:46.081Z,21.98
2023-04-18T05:27:48.022Z,21.99
2023-04-18T05:28:49.874Z,22.08
2023-04-18T05:29:51.712Z,22.08
2023-04-18T05:31:01.055Z,22.14
2023-04-18T05:32:03.398Z,22.21
2023-04-18T05:33:05.443Z,22.24
2023-04-18T05:34:07.278Z,22.32
2023-04-18T05:35:09.453Z,22.36
2023-04-18T05:36:11.332Z,22.38
2023-04-18T05:37:13.189Z,22.43
2023-04-18T05:38:15.105Z,22.47
2023-04-18T05:39:17.152Z,22.48
2023-04-18T05:40:18.948Z,22.48
2023-04-18T05:41:20.849Z,22.53
2023-04-18T05:42:23.767Z,22.61
2023-04-18T05:43:25.835Z,22.60
2023-04-18T05:44:27.717Z,22.65
2023-04-18T05:45:29.611Z,22.48
2023-04-18T05:46:31.497Z,22.72
2023-04-18T05:47:33.756Z,22.78
2023-04-18T05:48:35.790Z,22.77
2023-04-18T05:49:37.591Z,22.85
2023-04-18T05:50:39.493Z,22.88
2023-04-18T05:51:41.338Z,22.90
2023-04-18T05:52:43.227Z,22.88
2023-04-18T05:53:45.000Z,22.93
2023-04-18T05:54:46.862Z,22.98
2023-04-18T05:55:48.961Z,22.99
2023-04-18T05:56:51.202Z,22.97
2023-04-18T05:57:53.069Z,23.00
2023-04-18T05:58:54.871Z,23.02
2023-04-18T05:59:56.673Z,23.03
2023-04-18T06:00:58.496Z,23.07
2023-04-18T06:02:00.468Z,23.09
2023-04-18T06:03:02.642Z,23.11
2023-04-18T06:04:05.138Z,23.13
2023-04-18T06:05:08.098Z,23.11
2023-04-18T06:06:10.861Z,23.15
2023-04-18T06:07:12.794Z,23.17
2023-04-18T06:08:14.593Z,23.18
2023-04-18T06:09:16.370Z,23.16
2023-04-18T06:10:18.211Z,23.21
2023-04-18T06:11:22.749Z,23.18
2023-04-18T06:13:26.348Z,23.25
2023-04-18T06:14:28.751Z,23.21
2023-04-18T06:15:30.633Z,23.26
2023-04-18T06:16:32.687Z,23.28
2023-04-18T06:17:35.047Z,23.25
2023-04-18T06:18:37.036Z,23.29
2023-04-18T06:19:39.735Z,23.30
2023-04-18T06:20:43.953Z,23.31
2023-04-18T06:21:46.161Z,23.30
2023-04-18T06:22:48.004Z,23.31
2023-04-18T06:23:49.957Z,23.32
2023-04-18T06:24:51.887Z,23.30
2023-04-18T06:25:53.873Z,23.34
2023-04-18T06:26:58.502Z,23.35
2023-04-18T06:28:00.447Z,23.37
2023-04-18T06:29:02.349Z,23.37
2023-04-18T06:30:05.492Z,23.38
2023-04-18T06:31:08.674Z,23.38
2023-04-18T06:32:10.532Z,23.39
2023-04-18T06:33:12.336Z,23.40
2023-04-18T06:34:14.431Z,23.38
2023-04-18T06:35:16.818Z,23.38
2023-04-18T06:36:19.146Z,23.41
2023-04-18T06:37:21.232Z,23.41
2023-04-18T06:38:23.126Z,23.42
2023-04-18T06:39:25.128Z,23.43
2023-04-18T06:40:27.134Z,23.39
2023-04-18T06:41:28.947Z,23.40
2023-04-18T06:42:30.819Z,23.41
2023-04-18T06:43:32.939Z,23.42
2023-04-18T06:44:36.401Z,23.41
2023-04-18T06:45:38.610Z,23.39
2023-04-18T06:46:40.545Z,23.44
2023-04-18T06:47:42.372Z,23.42
2023-04-18T06:48:44.184Z,23.44
2023-04-18T06:49:46.090Z,23.41
2023-04-18T06:50:47.956Z,23.42
2023-04-18T06:51:49.715Z,23.45
2023-04-18T06:52:51.483Z,23.43
2023-04-18T06:53:53.867Z,23.44
2023-04-18T06:54:55.706Z,23.46
2023-04-18T06:55:57.584Z,23.44
2023-04-18T06:56:59.784Z,23.43
2023-04-18T06:58:01.602Z,23.41
2023-04-18T06:59:03.540Z,23.43
2023-04-18T07:00:06.028Z,23.45
2023-04-18T07:01:07.855Z,23.38
2023-04-18T07:02:09.713Z,23.46
2023-04-18T07:03:13.640Z,23.47
2023-04-18T07:04:15.738Z,23.45
2023-04-18T07:05:18.008Z,23.47
2023-04-18T07:06:20.001Z,23.48
2023-04-18T07:07:21.931Z,23.47
2023-04-18T07:08:23.722Z,23.44
2023-04-18T07:09:25.536Z,23.45
2023-04-18T07:10:27.394Z,23.48
2023-04-18T07:11:29.995Z,23.48
2023-04-18T07:12:31.846Z,23.46
2023-04-18T07:13:33.697Z,23.48
2023-04-18T07:14:35.640Z,23.48
2023-04-18T07:15:37.800Z,23.48
2023-04-18T07:16:39.821Z,23.49
2023-04-18T07:17:41.768Z,23.35
2023-04-18T07:18:43.598Z,23.49
2023-04-18T07:19:45.706Z,23.49
2023-04-18T07:20:47.486Z,23.50
2023-04-18T07:21:49.296Z,23.49
2023-04-18T07:22:51.181Z,23.49
2023-04-18T07:23:52.971Z,23.52
2023-04-18T07:24:54.847Z,23.50
2023-04-18T07:25:58.706Z,23.48
2023-04-18T07:27:01.566Z,23.51
2023-04-18T07:28:03.482Z,23.54
2023-04-18T07:29:05.460Z,23.52
2023-04-18T07:30:07.858Z,23.44
2023-04-18T07:31:11.605Z,23.51
2023-04-18T07:32:13.585Z,23.52
2023-04-18T07:33:15.431Z,23.51
2023-04-18T07:34:17.931Z,23.56
2023-04-18T07:35:19.905Z,23.52
2023-04-18T07:36:21.821Z,23.56
2023-04-18T07:37:23.963Z,23.56
2023-04-18T07:38:27.049Z,23.57
2023-04-18T07:39:28.956Z,23.56
2023-04-18T07:40:30.870Z,23.55
2023-04-18T07:41:33.340Z,23.54
2023-04-18T07:42:35.148Z,23.54
2023-04-18T07:43:38.651Z,23.54
2023-04-18T07:44:40.523Z,23.58
2023-04-18T07:45:43.433Z,23.58
2023-04-18T07:46:45.402Z,23.58
2023-04-18T07:47:47.981Z,23.58
2023-04-18T07:48:50.503Z,23.60
2023-04-18T07:49:52.330Z,23.60
2023-04-18T07:50:54.339Z,23.59
2023-04-18T07:51:56.174Z,23.57
2023-04-18T07:52:58.046Z,23.60
2023-04-18T07:53:59.920Z,23.60
2023-04-18T07:55:01.737Z,23.61
2023-04-18T07:56:03.686Z,23.57
2023-04-18T07:57:05.542Z,23.59
2023-04-18T07:58:07.385Z,23.61
2023-04-18T07:59:09.166Z,23.62
2023-04-18T08:00:12.529Z,23.59
2023-04-18T08:01:18.680Z,23.62
2023-04-18T08:02:21.388Z,23.63
2023-04-18T08:03:23.616Z,23.64
2023-04-18T08:04:28.232Z,23.63
2023-04-18T08:05:31.786Z,23.64
2023-04-18T08:06:34.834Z,23.61
2023-04-18T08:07:37.133Z,23.62
2023-04-18T08:08:39.041Z,23.64
2023-04-18T08:09:40.872Z,23.65
2023-04-18T08:10:42.740Z,23.65
2023-04-18T08:11:44.570Z,23.62
2023-04-18T08:12:46.444Z,23.62
2023-04-18T08:13:48.251Z,23.62
2023-04-18T08:14:50.448Z,23.66
2023-04-18T08:15:52.379Z,23.65
2023-04-18T08:16:54.241Z,23.64
2023-04-18T08:17:56.260Z,23.64
2023-04-18T08:18:58.081Z,23.63
2023-04-18T08:20:00.915Z,23.68
2023-04-18T08:21:02.780Z,23.68
2023-04-18T08:22:12.270Z,23.63
2023-04-18T08:23:14.884Z,23.66
2023-04-18T08:24:16.712Z,23.71
2023-04-18T08:25:18.566Z,23.65
2023-04-18T08:26:20.946Z,23.67
2023-04-18T08:27:22.768Z,23.70
2023-04-18T08:28:24.630Z,23.68
2023-04-18T08:29:27.264Z,23.66
2023-04-18T08:30:29.231Z,23.70
2023-04-18T08:31:31.836Z,23.68
2023-04-18T08:32:33.938Z,23.71
2023-04-18T08:33:35.781Z,23.68
2023-04-18T08:34:38.167Z,23.67
2023-04-18T08:35:40.016Z,23.72
2023-04-18T08:36:41.810Z,23.69
2023-04-18T08:37:43.929Z,23.72
2023-04-18T08:38:45.727Z,23.73
2023-04-18T08:39:47.488Z,23.71
2023-04-18T08:40:49.446Z,23.69
2023-04-18T08:42:00.144Z,23.72
2023-04-18T08:43:05.011Z,23.75
2023-04-18T08:44:07.418Z,23.76
2023-04-18T08:45:09.630Z,23.69
2023-04-18T08:46:11.807Z,23.72
2023-04-18T08:47:14.763Z,23.75
2023-04-18T08:48:17.698Z,23.71
2023-04-18T08:49:22.673Z,23.69
2023-04-18T08:50:24.558Z,23.76
2023-04-18T08:51:30.619Z,23.74
2023-04-18T08:52:34.332Z,23.77
2023-04-18T08:53:36.223Z,23.75
2023-04-18T08:54:42.058Z,23.76
2023-04-18T08:55:44.566Z,23.73
2023-04-18T08:56:46.730Z,23.76
2023-04-18T08:57:50.418Z,23.75
2023-04-18T08:58:52.316Z,23.75
2023-04-18T08:59:55.395Z,23.76
2023-04-18T09:00:57.360Z,23.74
2023-04-18T09:02:01.629Z,23.73
2023-04-18T09:03:04.298Z,23.77
2023-04-18T09:04:06.425Z,23.77
2023-04-18T09:05:19.727Z,23.78
2023-04-18T09:06:22.102Z,23.79
2023-04-18T09:07:30.676Z,23.79
2023-04-18T09:08:32.512Z,23.76
2023-04-18T09:09:50.705Z,23.75
2023-04-18T09:10:52.801Z,23.77
2023-04-18T09:12:08.306Z,23.80
2023-04-18T09:13:10.254Z,23.80
2023-04-18T09:14:26.014Z,23.78
2023-04-18T09:15:29.367Z,23.83
2023-04-18T09:16:46.885Z,23.80
2023-04-18T09:17:53.097Z,23.84
2023-04-18T09:19:14.511Z,23.85
2023-04-18T09:20:47.632Z,23.93
2023-04-18T09:22:01.965Z,23.90
2023-04-18T09:23:06.048Z,23.89
2023-04-18T09:24:21.166Z,23.82
2023-04-18T09:25:39.845Z,23.88
2023-04-18T09:26:43.956Z,23.86
2023-04-18T09:27:46.136Z,23.79
2023-04-18T09:28:53.964Z,23.77
2023-04-18T09:29:57.793Z,23.83
2023-04-18T09:31:15.531Z,23.80
2023-04-18T09:32:27.114Z,23.85
2023-04-18T09:33:34.001Z,23.85
2023-04-18T09:34:42.525Z,23.78
2023-04-18T09:35:44.505Z,23.84
2023-04-18T09:36:46.337Z,23.80
2023-04-18T09:37:51.247Z,23.82
2023-04-18T09:38:56.208Z,23.82
2023-04-18T09:39:58.740Z,23.84
2023-04-18T09:41:15.812Z,23.84
2023-04-18T09:42:18.491Z,23.86
2023-04-18T09:43:21.409Z,23.84
2023-04-18T09:44:23.177Z,23.84
2023-04-18T09:45:25.680Z,23.84
2023-04-18T09:46:27.860Z,23.81
2023-04-18T09:47:30.269Z,23.84
2023-04-18T09:48:32.124Z,23.83
2023-04-18T09:49:34.012Z,23.83
2023-04-18T09:50:36.768Z,23.81
2023-04-18T09:51:39.729Z,23.83
2023-04-18T09:52:42.950Z,23.83
2023-04-18T09:53:47.504Z,23.83
2023-04-18T09:54:58.665Z,23.85
2023-04-18T09:56:01.670Z,23.85
2023-04-18T09:57:08.280Z,23.85
2023-04-18T09:58:11.527Z,23.88
2023-04-18T09:59:21.632Z,23.88
2023-04-18T10:00:26.652Z,23.89
2023-04-18T10:01:29.873Z,23.88
2023-04-18T10:02:41.232Z,23.86
2023-04-18T10:03:47.393Z,23.84
2023-04-18T10:04:54.310Z,23.89
2023-04-18T10:05:57.752Z,23.87
2023-04-18T10:07:00.877Z,23.87
2023-04-18T10:08:03.743Z,23.86
2023-04-18T10:09:06.452Z,23.85
2023-04-18T10:10:08.758Z,23.85
2023-04-18T10:11:11.104Z,23.83
2023-04-18T10:12:13.582Z,23.84
2023-04-18T10:13:18.685Z,23.85
2023-04-18T10:14:22.777Z,23.81
2023-04-18T10:15:29.635Z,23.85
2023-04-18T10:16:34.835Z,23.85
2023-04-18T10:18:00.240Z,23.84
2023-04-18T10:19:26.248Z,23.94
2023-04-18T10:20:30.151Z,23.93
2023-04-18T10:21:32.170Z,23.91
2023-04-18T10:22:35.455Z,23.86
2023-04-18T10:23:39.895Z,23.85
2023-04-18T10:24:56.219Z,23.85
2023-04-18T10:25:59.578Z,23.85
2023-04-18T10:27:02.184Z,23.82
2023-04-18T10:28:08.052Z,23.81
2023-04-18T10:29:10.052Z,23.84
2023-04-18T10:30:12.384Z,23.80
2023-04-18T10:31:16.464Z,23.82
2023-04-18T10:32:20.047Z,23.77
2023-04-18T10:33:33.601Z,23.82
2023-04-18T10:34:37.828Z,23.82
2023-04-18T10:36:00.263Z,23.84
2023-04-18T10:37:05.872Z,23.88
2023-04-18T10:38:16.794Z,23.88
2023-04-18T10:39:23.340Z,23.86
2023-04-18T10:40:35.090Z,23.83
2023-04-18T10:41:49.530Z,23.86
2023-04-18T10:42:52.472Z,23.88
2023-04-18T10:44:15.845Z,23.86
2023-04-18T10:45:22.615Z,23.89
2023-04-18T10:46:31.646Z,23.84
2023-04-18T10:47:34.944Z,23.82
2023-04-18T10:48:39.332Z,23.78
2023-04-18T10:49:53.917Z,23.83
2023-04-18T10:51:15.152Z,23.90
2023-04-18T10:52:17.021Z,23.89
2023-04-18T10:53:18.944Z,23.86
2023-04-18T10:54:46.783Z,23.88
2023-04-18T10:55:54.565Z,23.89
2023-04-18T10:56:59.204Z,23.87
2023-04-18T10:58:01.586Z,23.83
2023-04-18T10:59:03.761Z,23.84
2023-04-18T11:00:09.442Z,23.83
2023-04-18T11:01:14.518Z,23.84
2023-04-18T11:02:27.233Z,23.84
2023-04-18T11:03:35.687Z,23.83
2023-04-18T11:04:38.008Z,23.82
2023-04-18T11:05:39.964Z,23.84
2023-04-18T11:06:55.011Z,23.81
2023-04-18T11:07:56.859Z,23.84
2023-04-18T11:09:12.210Z,23.86
2023-04-18T11:10:18.444Z,23.82
2023-04-18T11:11:20.972Z,23.86
2023-04-18T11:12:23.276Z,23.85
2023-04-18T11:13:26.784Z,23.80
2023-04-18T11:14:39.869Z,23.84
2023-04-18T11:15:41.740Z,23.85
2023-04-18T11:16:43.581Z,23.82
2023-04-18T11:17:45.809Z,23.82
2023-04-18T11:18:47.590Z,23.81
2023-04-18T11:19:50.386Z,23.77
2023-04-18T11:20:52.267Z,23.81
2023-04-18T11:22:01.350Z,23.80
2023-04-18T11:23:03.703Z,23.86
2023-04-18T11:24:05.640Z,23.82
2023-04-18T11:25:08.617Z,23.82
2023-04-18T11:26:13.013Z,23.84
2023-04-18T11:27:14.877Z,23.85
2023-04-18T11:28:21.439Z,23.83
2023-04-18T11:29:23.363Z,23.80
2023-04-18T11:30:25.419Z,23.84
2023-04-18T11:31:27.310Z,23.81
2023-04-18T11:32:29.359Z,23.80
2023-04-18T11:33:32.025Z,23.82
2023-04-18T11:34:34.027Z,23.82
2023-04-18T11:35:40.777Z,23.83
2023-04-18T11:36:42.776Z,23.82
2023-04-18T11:37:50.015Z,23.84
2023-04-18T11:38:51.987Z,23.88
2023-04-18T11:39:54.201Z,23.86
2023-04-18T11:40:56.315Z,23.85
2023-04-18T11:41:59.366Z,23.81
2023-04-18T11:43:02.522Z,23.87
2023-04-18T11:44:06.550Z,23.84
2023-04-18T11:45:12.795Z,23.70
2023-04-18T11:46:14.829Z,23.83
2023-04-18T11:47:31.622Z,23.86
2023-04-18T11:48:38.429Z,23.90
2023-04-18T11:49:40.250Z,23.90
2023-04-18T11:50:42.028Z,23.86
2023-04-18T11:51:46.385Z,23.87
2023-04-18T11:52:51.193Z,23.86
2023-04-18T11:53:53.056Z,23.85
2023-04-18T11:54:56.158Z,23.86
2023-04-18T11:55:58.075Z,23.86
2023-04-18T11:57:00.037Z,23.83
2023-04-18T11:58:02.830Z,23.85
2023-04-18T11:59:10.735Z,23.83
2023-04-18T12:00:13.508Z,23.85
2023-04-18T12:01:25.765Z,23.84
2023-04-18T12:02:50.072Z,23.91
2023-04-18T12:04:02.569Z,23.93
2023-04-18T12:05:06.048Z,23.76
2023-04-18T12:06:08.187Z,23.89
2023-04-18T12:07:10.040Z,23.83
2023-04-18T12:08:13.691Z,23.85
2023-04-18T12:09:17.186Z,23.82
2023-04-18T12:10:27.400Z,23.84
2023-04-18T12:11:29.424Z,23.85
2023-04-18T12:12:31.359Z,23.79
2023-04-18T12:13:35.126Z,23.76
2023-04-18T12:14:36.881Z,23.81
2023-04-18T12:15:40.612Z,23.82
2023-04-18T12:16:42.552Z,23.81
2023-04-18T12:17:48.621Z,23.81
2023-04-18T12:18:57.376Z,23.80
2023-04-18T12:20:04.714Z,23.81
2023-04-18T12:21:06.521Z,23.85
2023-04-18T12:22:09.731Z,23.80
2023-04-18T12:23:46.468Z,23.84
2023-04-18T12:25:10.332Z,23.92
2023-04-18T12:26:14.563Z,23.90
2023-04-18T12:27:17.085Z,23.88
2023-04-18T12:28:20.029Z,23.86
2023-04-18T12:29:21.882Z,23.85
2023-04-18T12:30:30.444Z,23.82
2023-04-18T12:31:33.449Z,23.82
2023-04-18T12:32:35.974Z,23.79
2023-04-18T12:33:37.788Z,23.81
2023-04-18T12:34:39.633Z,23.81
2023-04-18T12:35:42.605Z,23.82
2023-04-18T12:36:44.638Z,23.80
2023-04-18T12:37:48.276Z,23.76
2023-04-18T12:38:50.170Z,23.82
2023-04-18T12:39:51.979Z,23.78
2023-04-18T12:40:53.887Z,23.80
2023-04-18T12:41:55.889Z,23.80
2023-04-18T12:42:57.762Z,23.78
2023-04-18T12:44:00.394Z,23.79
2023-04-18T12:45:07.593Z,23.81
2023-04-18T12:46:09.557Z,23.81
2023-04-18T12:47:11.611Z,23.79
2023-04-18T12:48:13.978Z,23.81
2023-04-18T12:49:15.907Z,23.80
2023-04-18T12:50:23.909Z,23.79
2023-04-18T12:51:26.643Z,23.80
2023-04-18T12:52:28.882Z,23.80
2023-04-18T12:53:30.817Z,23.83
2023-04-18T12:54:32.742Z,23.80
2023-04-18T12:55:34.602Z,23.81
2023-04-18T12:56:36.448Z,23.81
2023-04-18T12:57:38.510Z,23.79
2023-04-18T12:58:40.952Z,23.80
2023-04-18T12:59:42.778Z,23.78
2023-04-18T13:00:44.632Z,23.81
2023-04-18T13:01:46.517Z,23.78
2023-04-18T13:02:48.478Z,23.81
2023-04-18T13:03:56.732Z,23.78
2023-04-18T13:05:11.024Z,23.79
2023-04-18T13:06:13.130Z,23.85
2023-04-18T13:07:14.949Z,23.84
2023-04-18T13:08:18.160Z,23.80
2023-04-18T13:09:20.230Z,23.80
2023-04-18T13:10:24.773Z,23.82
2023-04-18T13:11:28.742Z,23.81
2023-04-18T13:12:31.100Z,23.84
2023-04-18T13:13:34.454Z,23.82
2023-04-18T13:14:37.492Z,23.83
2023-04-18T13:15:39.345Z,23.83
2023-04-18T13:16:43.561Z,23.80
2023-04-18T13:17:45.928Z,23.83
2023-04-18T13:18:47.740Z,23.82
2023-04-18T13:19:49.820Z,23.81
2023-04-18T13:20:52.555Z,23.83
2023-04-18T13:21:54.351Z,23.81
2023-04-18T13:22:56.467Z,23.83
2023-04-18T13:23:58.298Z,23.84
2023-04-18T13:25:00.527Z,23.83
2023-04-18T13:26:02.405Z,23.82
2023-04-18T13:27:10.578Z,23.84
2023-04-18T13:28:12.349Z,23.86
2023-04-18T13:29:14.361Z,23.83
2023-04-18T13:30:16.266Z,23.85
2023-04-18T13:31:18.093Z,23.84
2023-04-18T13:32:20.246Z,23.85
2023-04-18T13:33:22.102Z,23.85
2023-04-18T13:34:23.884Z,23.84
2023-04-18T13:35:25.685Z,23.85
2023-04-18T13:36:27.812Z,23.82
2023-04-18T13:37:31.252Z,23.82
2023-04-18T13:38:33.048Z,23.84
2023-04-18T13:39:34.937Z,23.85
2023-04-18T13:40:38.815Z,23.86
2023-04-18T13:41:40.647Z,23.86
2023-04-18T13:42:43.159Z,23.86
2023-04-18T13:43:44.943Z,23.86
2023-04-18T13:44:47.731Z,23.87
2023-04-18T13:45:49.610Z,23.83
2023-04-18T13:46:54.555Z,23.85
2023-04-18T13:47:56.353Z,23.85
2023-04-18T13:48:58.372Z,23.88